Time;durP1;ratioP1;P1;durP2;ratioP2;P2;SDS_P1;SDS_P2;PMS_P1;PMS_P2;Temp;Humidity;BMP_temperature;BMP_pressure;BME280_temperature;BME280_humidity;BME280_pressure;Samples;Min_cycle;Max_cycle;Signal;HPM_P1;HPM_P2
2022/10/13 00:00:04;;;;;;;8.97;8.07;;;8.20;1.00;;;;;;6336893;27;20247;-60
2022/10/13 00:03:07;;;;;;;7.57;6.73;;;8.10;1.00;;;;;;6333038;27;20240;-54
2022/10/13 00:06:11;;;;;;;11.17;7.47;;;8.10;1.00;;;;;;6336444;27;20239;-53
2022/10/13 00:09:13;;;;;;;9.77;7.77;;;8.30;1.00;;;;;;6337247;27;20243;-55
2022/10/13 00:12:16;;;;;;;8.93;7.53;;;8.10;1.00;;;;;;6315940;27;20277;-55
2022/10/13 00:15:21;;;;;;;13.40;8.43;;;8.20;1.00;;;;;;6334030;28;20259;-54
2022/10/13 00:18:24;;;;;;;10.83;8.70;;;8.00;1.00;;;;;;6319083;28;20236;-53
2022/10/13 00:21:28;;;;;;;10.63;7.80;;;8.20;1.00;;;;;;6316368;28;20239;-54
2022/10/13 00:24:31;;;;;;;10.00;8.03;;;8.30;1.00;;;;;;6327736;27;20228;-54
2022/10/13 00:27:33;;;;;;;9.13;7.50;;;8.00;1.00;;;;;;6335569;27;20457;-54
2022/10/13 00:30:38;;;;;;;7.63;7.00;;;8.00;1.00;;;;;;6317515;27;20225;-53
2022/10/13 00:33:41;;;;;;;9.57;8.10;;;7.90;1.00;;;;;;6334146;27;20236;-53
2022/10/13 00:36:44;;;;;;;13.23;7.53;;;7.90;1.00;;;;;;6335658;27;20760;-53
2022/10/13 00:39:47;;;;;;;9.20;8.30;;;7.90;1.00;;;;;;6314615;28;20233;-53
2022/10/13 00:42:50;;;;;;;9.87;8.73;;;7.90;1.00;;;;;;6310985;28;20323;-54
2022/10/13 00:45:55;;;;;;;11.30;8.47;;;7.90;1.00;;;;;;6311425;28;20240;-53
2022/10/13 00:49:00;;;;;;;9.90;7.83;;;7.90;1.00;;;;;;6322514;27;20242;-54
2022/10/13 00:52:03;;;;;;;11.47;7.77;;;7.80;1.00;;;;;;6335808;27;20246;-55
2022/10/13 00:55:08;;;;;;;10.07;7.93;;;7.80;1.00;;;;;;6319721;27;20614;-54
2022/10/13 00:58:15;;;;;;;8.70;7.90;;;8.00;1.00;;;;;;6341448;27;20683;-54
2022/10/13 01:01:19;;;;;;;9.13;7.67;;;7.80;1.00;;;;;;6335859;27;20255;-53
2022/10/13 01:04:25;;;;;;;8.90;8.00;;;7.70;1.00;;;;;;6323770;27;20232;-54
2022/10/13 01:07:28;;;;;;;7.80;6.80;;;7.70;1.00;;;;;;6335770;28;20236;-55
2022/10/13 01:10:40;;;;;;;12.27;9.03;;;7.70;1.00;;;;;;6318750;28;20236;-53
2022/10/13 01:13:48;;;;;;;8.17;7.37;;;7.70;1.00;;;;;;6320893;27;20240;-53
2022/10/13 01:17:04;;;;;;;8.33;7.60;;;7.60;1.00;;;;;;6329999;27;20721;-54
2022/10/13 01:20:34;;;;;;;9.27;8.20;;;7.60;1.00;;;;;;6331844;27;20962;-54
2022/10/13 01:24:01;;;;;;;13.53;8.83;;;7.60;1.00;;;;;;6304117;28;20239;-54
2022/10/13 01:27:33;;;;;;;9.73;8.17;;;7.60;1.00;;;;;;6324735;27;20244;-53
2022/10/13 01:30:44;;;;;;;8.23;7.53;;;7.60;1.00;;;;;;6335352;27;20236;-54
2022/10/13 01:33:56;;;;;;;10.83;8.43;;;7.60;1.00;;;;;;6329824;27;20263;-54
2022/10/13 01:37:05;;;;;;;9.37;7.90;;;7.80;1.00;;;;;;6334845;27;20725;-53
2022/10/13 01:40:18;;;;;;;15.03;8.57;;;7.50;1.00;;;;;;6335358;28;20410;-53
2022/10/13 01:43:25;;;;;;;9.27;7.97;;;7.70;1.00;;;;;;6333661;28;20236;-55
2022/10/13 01:46:33;;;;;;;10.10;7.77;;;7.40;1.00;;;;;;6334585;28;20228;-53
2022/10/13 01:49:37;;;;;;;8.60;7.63;;;7.60;1.00;;;;;;6330738;28;20772;-54
2022/10/13 01:52:42;;;;;;;14.97;7.63;;;7.40;1.00;;;;;;6333662;27;20235;-54
2022/10/13 01:55:51;;;;;;;9.83;8.83;;;7.60;1.00;;;;;;6332573;27;20522;-54
2022/10/13 01:58:59;;;;;;;11.87;8.37;;;7.50;1.00;;;;;;6334822;27;20240;-53
2022/10/13 02:02:12;;;;;;;9.43;7.57;;;7.50;1.00;;;;;;6336052;28;20241;-53
2022/10/13 02:05:24;;;;;;;16.23;8.80;;;7.40;1.00;;;;;;6333254;27;20251;-53
2022/10/13 02:08:36;;;;;;;11.37;8.30;;;7.30;1.00;;;;;;6333972;28;20232;-54
2022/10/13 02:11:44;;;;;;;15.90;9.27;;;7.30;1.00;;;;;;6311055;28;20490;-54
2022/10/13 02:14:49;;;;;;;10.23;8.40;;;7.60;1.00;;;;;;6309774;28;20232;-53
2022/10/13 02:17:54;;;;;;;9.73;8.03;;;7.60;1.00;;;;;;6306798;27;20525;-53
2022/10/13 02:20:58;;;;;;;10.10;8.37;;;7.70;1.00;;;;;;6308676;28;20228;-54
2022/10/13 02:24:01;;;;;;;13.33;7.47;;;7.70;1.00;;;;;;6334017;28;20243;-53
2022/10/13 02:27:05;;;;;;;9.70;8.50;;;7.60;1.00;;;;;;6321017;27;20232;-52
2022/10/13 02:30:09;;;;;;;9.70;8.70;;;7.50;1.00;;;;;;6331280;27;20232;-55
2022/10/13 02:33:15;;;;;;;11.77;8.57;;;7.40;1.00;;;;;;6333506;27;20326;-55
2022/10/13 02:36:18;;;;;;;9.70;8.67;;;7.70;1.00;;;;;;6325310;27;20228;-54
2022/10/13 02:39:20;;;;;;;9.63;8.70;;;7.40;1.00;;;;;;6314686;28;20235;-54
2022/10/13 02:42:23;;;;;;;10.17;8.27;;;7.40;1.00;;;;;;6339103;28;20243;-53
2022/10/13 02:45:26;;;;;;;13.07;8.73;;;7.50;1.00;;;;;;6332508;28;20284;-53
2022/10/13 02:48:31;;;;;;;10.87;8.50;;;7.40;1.00;;;;;;6336949;27;20714;-54
2022/10/13 02:51:34;;;;;;;11.50;8.13;;;7.60;1.00;;;;;;6333259;27;20231;-54
2022/10/13 02:54:42;;;;;;;10.77;8.50;;;7.60;1.00;;;;;;6334945;27;20797;-54
2022/10/13 02:57:44;;;;;;;17.03;8.97;;;7.50;1.00;;;;;;6340192;27;20624;-53
2022/10/13 03:00:47;;;;;;;9.13;8.17;;;7.40;1.00;;;;;;6328283;27;20232;-54
2022/10/13 03:03:52;;;;;;;14.10;9.60;;;7.30;1.00;;;;;;6328349;27;20353;-54
2022/10/13 03:06:54;;;;;;;8.37;7.67;;;7.30;1.00;;;;;;6331373;27;20232;-54
2022/10/13 03:09:57;;;;;;;11.07;8.23;;;7.30;1.00;;;;;;6329561;27;20247;-53
2022/10/13 03:13:01;;;;;;;11.90;8.93;;;7.30;1.00;;;;;;6313636;28;20792;-54
2022/10/13 03:16:04;;;;;;;9.27;8.27;;;7.30;1.00;;;;;;6313166;28;20225;-53
2022/10/13 03:19:08;;;;;;;10.13;9.13;;;7.30;1.00;;;;;;6313587;28;20240;-53
2022/10/13 03:22:13;;;;;;;11.17;9.33;;;7.50;1.00;;;;;;6315768;28;20232;-53
2022/10/13 03:25:16;;;;;;;11.37;8.90;;;7.20;1.00;;;;;;6337241;27;20241;-54
2022/10/13 03:28:19;;;;;;;12.90;9.00;;;7.40;1.00;;;;;;6333170;27;20228;-53
2022/10/13 03:31:22;;;;;;;15.57;9.17;;;7.20;1.00;;;;;;6325229;27;20752;-55
2022/10/13 03:34:26;;;;;;;14.63;9.60;;;7.20;1.00;;;;;;6329065;27;20747;-53
2022/10/13 03:37:29;;;;;;;13.97;9.40;;;7.10;1.00;;;;;;6336142;27;20231;-54
2022/10/13 03:40:32;;;;;;;10.07;9.07;;;7.00;1.00;;;;;;6331327;28;20244;-53
2022/10/13 03:43:35;;;;;;;14.00;8.80;;;7.20;1.00;;;;;;6336829;27;20232;-53
2022/10/13 03:46:38;;;;;;;9.67;8.40;;;7.30;1.00;;;;;;6337028;28;20630;-55
2022/10/13 03:49:42;;;;;;;10.03;9.13;;;7.20;1.00;;;;;;6323391;27;20221;-53
2022/10/13 03:52:45;;;;;;;13.27;10.07;;;7.10;1.00;;;;;;6342536;27;20254;-54
2022/10/13 03:55:52;;;;;;;9.97;9.00;;;7.00;1.00;;;;;;6332268;27;20232;-53
2022/10/13 03:58:56;;;;;;;9.63;8.70;;;7.10;1.00;;;;;;6329189;27;20489;-53
2022/10/13 04:01:59;;;;;;;13.10;8.50;;;7.00;1.00;;;;;;6331613;27;20239;-53
2022/10/13 04:05:03;;;;;;;14.57;9.60;;;7.40;1.00;;;;;;6335887;27;20286;-53
2022/10/13 04:08:06;;;;;;;14.77;10.23;;;7.20;1.00;;;;;;6327977;27;20224;-54
2022/10/13 04:11:13;;;;;;;13.00;10.03;;;7.00;1.00;;;;;;6339778;27;20632;-54
2022/10/13 04:14:15;;;;;;;11.00;9.10;;;7.20;1.00;;;;;;6314338;27;20258;-54
2022/10/13 04:17:18;;;;;;;14.80;9.53;;;7.10;1.00;;;;;;6326444;27;20236;-53
2022/10/13 04:20:22;;;;;;;11.83;9.30;;;7.20;1.00;;;;;;6329668;27;20231;-53
2022/10/13 04:23:25;;;;;;;11.87;9.33;;;7.40;1.00;;;;;;6323674;27;20737;-52
2022/10/13 04:26:30;;;;;;;13.60;9.60;;;7.50;1.00;;;;;;6334086;27;20229;-53
2022/10/13 04:29:33;;;;;;;10.13;8.87;;;7.20;1.00;;;;;;6330467;27;20238;-54
2022/10/13 04:32:36;;;;;;;11.93;9.90;;;7.30;1.00;;;;;;6326632;27;20242;-52
2022/10/13 04:35:41;;;;;;;10.53;9.13;;;7.20;1.00;;;;;;6329598;27;20332;-54
2022/10/13 04:38:44;;;;;;;11.40;9.17;;;7.30;1.00;;;;;;6327504;27;20493;-54
2022/10/13 04:41:47;;;;;;;11.47;8.77;;;7.30;1.00;;;;;;6309965;27;20397;-53
2022/10/13 04:44:50;;;;;;;14.70;9.77;;;7.10;1.00;;;;;;6323626;27;20228;-53
2022/10/13 04:47:52;;;;;;;11.00;9.40;;;7.30;1.00;;;;;;6329936;27;20589;-53
2022/10/13 04:51:00;;;;;;;12.80;9.53;;;7.30;1.00;;;;;;6320056;28;20237;-54
2022/10/13 04:54:04;;;;;;;12.37;9.63;;;7.30;1.00;;;;;;6339138;27;20262;-53
2022/10/13 04:57:07;;;;;;;14.47;9.23;;;7.50;1.00;;;;;;6329350;27;20239;-54
2022/10/13 05:00:11;;;;;;;10.70;9.57;;;7.40;1.00;;;;;;6330835;27;20232;-53
2022/10/13 05:03:14;;;;;;;11.10;9.50;;;7.40;1.00;;;;;;6335442;27;20243;-53
2022/10/13 05:06:20;;;;;;;13.10;9.97;;;7.60;1.00;;;;;;6330873;27;20247;-53
2022/10/13 05:09:23;;;;;;;12.43;9.37;;;7.30;1.00;;;;;;6335830;27;20263;-53
2022/10/13 05:12:26;;;;;;;13.23;10.27;;;7.30;1.00;;;;;;6328842;27;20239;-54
2022/10/13 05:15:29;;;;;;;13.43;11.00;;;7.30;1.00;;;;;;6335129;28;20240;-54
2022/10/13 05:18:31;;;;;;;12.83;9.83;;;7.30;1.00;;;;;;6333053;27;20641;-54
2022/10/13 05:21:36;;;;;;;12.97;10.00;;;7.20;1.00;;;;;;6334331;28;20621;-54
2022/10/13 05:24:39;;;;;;;13.90;9.97;;;7.30;1.00;;;;;;6330589;27;20517;-53
2022/10/13 05:27:44;;;;;;;11.33;9.37;;;7.30;1.00;;;;;;6335411;27;20495;-54
2022/10/13 05:30:46;;;;;;;10.37;9.50;;;7.30;1.00;;;;;;6327376;28;20242;-53
2022/10/13 05:33:51;;;;;;;14.77;10.47;;;7.40;1.00;;;;;;6336600;27;20239;-53
2022/10/13 05:36:55;;;;;;;16.00;9.80;;;7.40;1.00;;;;;;6331732;27;20743;-53
2022/10/13 05:39:57;;;;;;;11.83;10.43;;;7.40;1.00;;;;;;6320769;27;20232;-54
2022/10/13 05:43:00;;;;;;;11.00;10.00;;;7.40;1.00;;;;;;6331155;27;20250;-53
2022/10/13 05:46:04;;;;;;;9.90;9.00;;;7.40;1.00;;;;;;6327999;28;20614;-54
2022/10/13 05:49:06;;;;;;;11.80;10.47;;;7.40;1.00;;;;;;6319324;27;20228;-52
2022/10/13 05:52:12;;;;;;;14.07;11.13;;;7.50;1.00;;;;;;6326360;27;20242;-61
2022/10/13 05:55:17;;;;;;;14.23;11.07;;;7.40;1.00;;;;;;6312221;28;20224;-54
2022/10/13 05:58:20;;;;;;;10.73;9.67;;;7.60;1.00;;;;;;6335141;27;20247;-54
2022/10/13 06:01:26;;;;;;;20.97;11.57;;;7.70;1.00;;;;;;6328385;28;20235;-53
2022/10/13 06:04:34;;;;;;;11.47;9.60;;;7.40;1.00;;;;;;6333644;27;20228;-55
2022/10/13 06:07:38;;;;;;;17.40;11.13;;;7.90;1.00;;;;;;6334277;28;20235;-54
2022/10/13 06:10:42;;;;;;;17.30;11.60;;;7.70;1.00;;;;;;6335545;28;20234;-54
2022/10/13 06:13:44;;;;;;;16.40;11.07;;;7.90;1.00;;;;;;6335391;27;20254;-53
2022/10/13 06:16:47;;;;;;;16.67;11.20;;;7.60;1.00;;;;;;6340399;27;20244;-54
2022/10/13 06:19:50;;;;;;;15.00;11.13;;;7.70;1.00;;;;;;6326082;28;20240;-54
2022/10/13 06:22:55;;;;;;;15.37;11.10;;;7.70;1.00;;;;;;6326248;27;20239;-55
2022/10/13 06:25:58;;;;;;;13.23;11.77;;;7.90;1.00;;;;;;6337254;28;20312;-54
2022/10/13 06:29:01;;;;;;;13.43;10.93;;;7.70;1.00;;;;;;6324979;27;20228;-51
2022/10/13 06:32:05;;;;;;;11.57;10.47;;;7.80;1.00;;;;;;6327315;27;20555;-52
2022/10/13 06:35:08;;;;;;;17.50;11.90;;;7.70;1.00;;;;;;6329565;27;20231;-54
2022/10/13 06:38:13;;;;;;;12.73;11.23;;;7.70;1.00;;;;;;6325195;27;20232;-52
2022/10/13 06:41:15;;;;;;;12.23;10.47;;;7.80;1.00;;;;;;6328020;28;20255;-54
2022/10/13 06:44:18;;;;;;;15.77;11.50;;;8.00;1.00;;;;;;6321614;28;20224;-54
2022/10/13 06:47:21;;;;;;;15.37;11.17;;;7.90;1.00;;;;;;6332434;28;20600;-54
2022/10/13 06:50:24;;;;;;;18.43;12.97;;;7.90;1.00;;;;;;6328659;27;20744;-53
2022/10/13 06:53:28;;;;;;;17.33;12.50;;;7.90;1.00;;;;;;6319153;28;20277;-54
2022/10/13 06:56:31;;;;;;;13.60;11.87;;;8.20;1.00;;;;;;6322133;27;20227;-53
2022/10/13 06:59:34;;;;;;;12.80;11.43;;;8.10;1.00;;;;;;6322193;28;20228;-54
2022/10/13 07:02:37;;;;;;;17.67;11.70;;;8.10;1.00;;;;;;6340588;27;20378;-54
2022/10/13 07:05:39;;;;;;;22.10;13.00;;;8.30;1.00;;;;;;6327595;28;20232;-54
2022/10/13 07:08:44;;;;;;;18.80;12.50;;;8.40;1.00;;;;;;6326606;28;20244;-53
2022/10/13 07:11:48;;;;;;;20.97;13.10;;;8.50;1.00;;;;;;6325763;28;20236;-53
2022/10/13 07:14:51;;;;;;;19.13;11.93;;;8.60;1.00;;;;;;6326096;28;20232;-53
2022/10/13 07:17:54;;;;;;;14.70;12.20;;;8.70;1.00;;;;;;6337273;27;20289;-54
2022/10/13 07:20:58;;;;;;;15.13;13.43;;;8.60;1.00;;;;;;6329254;28;21316;-54
2022/10/13 07:24:03;;;;;;;16.80;11.57;;;8.90;1.00;;;;;;6321881;28;20314;-54
2022/10/13 07:27:06;;;;;;;17.67;13.10;;;8.80;1.00;;;;;;6328472;27;20235;-54
2022/10/13 07:30:11;;;;;;;16.17;14.00;;;8.90;1.00;;;;;;6330301;27;20313;-53
2022/10/13 07:33:13;;;;;;;16.33;13.03;;;9.00;1.00;;;;;;6335948;27;20381;-53
2022/10/13 07:36:17;;;;;;;18.03;12.90;;;9.10;1.00;;;;;;6331100;28;20243;-53
2022/10/13 07:39:21;;;;;;;25.40;13.83;;;9.20;1.00;;;;;;6335086;27;20235;-53
2022/10/13 07:42:23;;;;;;;22.97;13.40;;;9.30;1.00;;;;;;6335172;28;20228;-54
2022/10/13 07:45:26;;;;;;;19.20;12.67;;;9.40;1.00;;;;;;6333261;27;20271;-54
2022/10/13 07:48:29;;;;;;;19.87;13.67;;;9.50;1.00;;;;;;6325736;28;20235;-54
2022/10/13 07:51:32;;;;;;;18.63;14.37;;;9.50;1.00;;;;;;6334065;27;20251;-54
2022/10/13 07:54:36;;;;;;;16.20;14.27;;;9.60;1.00;;;;;;6332043;27;20731;-54
2022/10/13 07:57:39;;;;;;;19.37;15.07;;;9.90;1.00;;;;;;6338014;27;20235;-54
2022/10/13 08:00:42;;;;;;;19.60;14.00;;;10.00;1.00;;;;;;6326320;27;20240;-54
2022/10/13 08:03:45;;;;;;;20.93;14.40;;;10.10;1.00;;;;;;6330660;28;20627;-55
2022/10/13 08:06:52;;;;;;;19.03;14.00;;;10.30;1.00;;;;;;6335346;27;20335;-53
2022/10/13 08:09:56;;;;;;;26.63;15.60;;;10.50;1.00;;;;;;6330323;27;20554;-54
2022/10/13 08:12:59;;;;;;;16.30;14.17;;;10.80;1.00;;;;;;6333780;27;20251;-55
2022/10/13 08:16:03;;;;;;;17.83;13.50;;;11.00;1.00;;;;;;6329673;28;20716;-55
2022/10/13 08:19:05;;;;;;;18.63;14.13;;;11.30;1.00;;;;;;6335664;27;20305;-53
2022/10/13 08:22:09;;;;;;;26.20;15.53;;;11.50;1.00;;;;;;6331384;28;20249;-53
2022/10/13 08:25:13;;;;;;;18.73;14.03;;;11.70;1.00;;;;;;6327552;28;20243;-53
2022/10/13 08:28:19;;;;;;;20.17;15.27;;;11.70;1.00;;;;;;6335092;27;20606;-55
2022/10/13 08:31:21;;;;;;;16.43;14.03;;;11.80;1.00;;;;;;6326206;27;20228;-54
2022/10/13 08:34:25;;;;;;;16.83;13.67;;;11.90;1.00;;;;;;6331695;27;20623;-54
2022/10/13 08:37:28;;;;;;;27.70;14.57;;;12.00;1.00;;;;;;6317458;27;20242;-54
2022/10/13 08:40:32;;;;;;;18.23;14.70;;;12.00;1.00;;;;;;6322194;27;20231;-54
2022/10/13 08:43:35;;;;;;;20.60;14.03;;;12.00;1.00;;;;;;6319131;27;20236;-54
2022/10/13 08:47:03;;;;;;;18.60;14.57;;;12.10;1.00;;;;;;6323829;27;20621;-55
2022/10/13 08:50:12;;;;;;;19.67;15.23;;;12.20;1.00;;;;;;6323393;27;20232;-54
2022/10/13 08:53:22;;;;;;;17.97;16.07;;;12.30;1.00;;;;;;6330229;27;20229;-53
2022/10/13 08:56:30;;;;;;;19.70;14.57;;;12.50;1.00;;;;;;6335140;27;20232;-55
2022/10/13 08:59:33;;;;;;;21.73;14.20;;;12.60;1.00;;;;;;6331981;27;20230;-54
2022/10/13 09:02:37;;;;;;;17.47;14.00;;;12.80;1.00;;;;;;6332078;27;20725;-55
2022/10/13 09:05:46;;;;;;;15.20;13.53;;;12.80;1.00;;;;;;6342667;27;20235;-53
2022/10/13 09:08:52;;;;;;;19.70;14.67;;;13.00;1.00;;;;;;6330503;27;20247;-55
2022/10/13 09:11:58;;;;;;;16.77;14.60;;;13.20;1.00;;;;;;6341275;27;20239;-55
2022/10/13 09:15:04;;;;;;;19.33;14.40;;;13.20;1.00;;;;;;6329782;27;20763;-53
2022/10/13 09:18:12;;;;;;;16.13;13.47;;;13.20;1.00;;;;;;6332003;27;20236;-55
2022/10/13 09:21:20;;;;;;;20.83;14.27;;;13.40;1.00;;;;;;6335065;27;20409;-53
2022/10/13 09:24:25;;;;;;;18.00;14.20;;;13.60;1.00;;;;;;6327149;27;20743;-55
2022/10/13 09:27:42;;;;;;;22.40;15.27;;;13.80;1.00;;;;;;6327893;27;20577;-55
2022/10/13 09:30:46;;;;;;;15.93;13.20;;;14.00;1.00;;;;;;6329634;27;20237;-55
2022/10/13 09:33:58;;;;;;;15.60;14.00;;;14.00;1.00;;;;;;6329343;27;20741;-54
2022/10/13 09:37:02;;;;;;;15.37;13.23;;;14.10;1.00;;;;;;6324473;27;20556;-54
2022/10/13 09:40:19;;;;;;;20.63;14.63;;;14.10;1.00;;;;;;6328420;27;20612;-55
2022/10/13 09:43:30;;;;;;;16.60;14.87;;;14.30;1.00;;;;;;6314643;27;20220;-55
2022/10/13 09:46:36;;;;;;;23.90;16.13;;;14.40;1.00;;;;;;6325228;28;20231;-53
2022/10/13 09:49:40;;;;;;;22.53;15.37;;;14.40;1.00;;;;;;6320274;27;20231;-55
2022/10/13 09:52:44;;;;;;;19.67;15.17;;;14.50;1.00;;;;;;6332495;27;20657;-55
2022/10/13 09:55:48;;;;;;;21.87;15.80;;;14.60;1.00;;;;;;6331092;27;20247;-54
2022/10/13 09:59:07;;;;;;;21.23;15.43;;;14.70;1.00;;;;;;6327900;27;20267;-53
2022/10/13 10:02:19;;;;;;;17.33;15.53;;;14.80;1.00;;;;;;6324930;27;20260;-53
2022/10/13 10:05:35;;;;;;;18.47;15.23;;;14.90;1.00;;;;;;6325821;28;20243;-55
2022/10/13 10:08:45;;;;;;;19.70;16.73;;;15.00;1.00;;;;;;6335476;27;20224;-53
2022/10/13 10:12:06;;;;;;;21.17;15.47;;;15.00;1.00;;;;;;6328015;27;20265;-53
2022/10/13 10:15:20;;;;;;;22.57;16.73;;;15.00;1.00;;;;;;6331484;28;20235;-53
2022/10/13 10:18:31;;;;;;;18.27;16.13;;;15.20;1.00;;;;;;6327681;27;20311;-54
2022/10/13 10:21:39;;;;;;;18.00;16.13;;;15.20;1.00;;;;;;6323642;28;20244;-55
2022/10/13 10:24:49;;;;;;;17.30;15.47;;;15.20;1.00;;;;;;6324284;27;20608;-53
2022/10/13 10:28:06;;;;;;;22.27;16.90;;;15.20;1.00;;;;;;6332844;27;20239;-53
2022/10/13 10:31:23;;;;;;;20.30;16.33;;;15.20;1.00;;;;;;6325140;27;20246;-55
2022/10/13 10:34:36;;;;;;;24.47;17.23;;;15.20;1.00;;;;;;6330735;27;20231;-55
2022/10/13 10:38:02;;;;;;;20.43;16.50;;;15.30;1.00;;;;;;6329261;27;20402;-53
2022/10/13 10:41:12;;;;;;;18.63;16.50;;;15.40;1.00;;;;;;6323708;28;20236;-54
2022/10/13 10:44:17;;;;;;;23.10;16.40;;;15.60;1.00;;;;;;6337229;27;20242;-53
2022/10/13 10:47:25;;;;;;;24.10;16.57;;;15.70;1.00;;;;;;6342606;27;20220;-58
2022/10/13 10:50:29;;;;;;;20.17;17.73;;;15.80;1.00;;;;;;6318609;28;20702;-54
2022/10/13 10:53:41;;;;;;;18.83;15.80;;;16.00;1.00;;;;;;6328858;27;20623;-54
2022/10/13 10:56:51;;;;;;;20.43;15.50;;;16.10;1.00;;;;;;6326121;27;20235;-53
2022/10/13 11:00:03;;;;;;;20.53;15.50;;;16.40;1.00;;;;;;6320921;27;20241;-55
2022/10/13 11:03:17;;;;;;;24.13;16.13;;;16.60;1.00;;;;;;6332973;28;20668;-53
2022/10/13 11:06:32;;;;;;;18.50;16.60;;;16.50;1.00;;;;;;6337026;27;20223;-54
2022/10/13 11:10:12;;;;;;;19.47;16.03;;;16.60;1.00;;;;;;6329674;27;20236;-54
2022/10/13 11:13:19;;;;;;;17.20;15.40;;;16.50;1.00;;;;;;6329519;27;20602;-54
2022/10/13 11:16:32;;;;;;;17.77;15.87;;;16.50;1.00;;;;;;6325363;28;20224;-53
2022/10/13 11:19:37;;;;;;;15.27;13.37;;;16.60;1.00;;;;;;6329906;27;20458;-53
2022/10/13 11:22:40;;;;;;;17.47;15.20;;;16.80;1.00;;;;;;6335147;27;20227;-54
2022/10/13 11:25:44;;;;;;;25.77;15.53;;;17.00;1.00;;;;;;6330244;27;20227;-55
2022/10/13 11:28:48;;;;;;;15.97;14.43;;;17.20;1.00;;;;;;6336232;27;20245;-54
2022/10/13 11:31:54;;;;;;;24.10;16.73;;;17.50;1.00;;;;;;6336112;27;20618;-55
2022/10/13 11:35:00;;;;;;;21.27;16.50;;;17.60;1.00;;;;;;6324207;27;20232;-56
2022/10/13 11:38:23;;;;;;;18.17;14.43;;;17.40;1.00;;;;;;6336074;27;20495;-54
2022/10/13 11:41:29;;;;;;;16.50;14.60;;;17.20;1.00;;;;;;6327754;27;20743;-53
2022/10/13 11:44:35;;;;;;;23.17;14.87;;;17.30;1.00;;;;;;6327408;28;20228;-55
2022/10/13 11:47:59;;;;;;;17.20;13.77;;;17.10;1.00;;;;;;6332631;27;20284;-55
2022/10/13 11:51:15;;;;;;;26.27;13.83;;;17.10;1.00;;;;;;6339425;27;20238;-53
2022/10/13 11:54:29;;;;;;;14.50;13.00;;;17.10;1.00;;;;;;6336563;27;20230;-55
2022/10/13 11:57:32;;;;;;;19.53;13.97;;;17.10;1.00;;;;;;6332776;27;20236;-54
2022/10/13 12:00:35;;;;;;;18.83;14.63;;;17.20;1.00;;;;;;6328324;27;20232;-55
2022/10/13 12:03:40;;;;;;;16.90;13.40;;;17.30;1.00;;;;;;6327586;27;20421;-54
2022/10/13 12:06:47;;;;;;;18.90;12.97;;;17.60;1.00;;;;;;6335228;27;20363;-54
2022/10/13 12:09:53;;;;;;;17.77;14.13;;;17.70;1.00;;;;;;6330675;27;20243;-56
2022/10/13 12:12:57;;;;;;;15.93;12.30;;;17.70;1.00;;;;;;6333822;27;20361;-54
2022/10/13 12:16:02;;;;;;;15.70;11.00;;;17.70;1.00;;;;;;6333899;27;20220;-54
2022/10/13 12:19:17;;;;;;;14.53;10.57;;;17.70;1.00;;;;;;6324212;27;20224;-54
2022/10/13 12:22:22;;;;;;;14.83;10.77;;;17.70;1.00;;;;;;6328444;27;20707;-54
2022/10/13 12:25:28;;;;;;;12.77;11.07;;;17.80;1.00;;;;;;6329635;27;20224;-55
2022/10/13 12:28:46;;;;;;;14.47;10.03;;;17.70;1.00;;;;;;6338430;27;20704;-57
2022/10/13 12:31:50;;;;;;;15.07;11.10;;;17.60;1.00;;;;;;6334169;27;20651;-56
2022/10/13 12:34:53;;;;;;;12.13;10.63;;;17.60;1.00;;;;;;6329266;27;20303;-54
2022/10/13 12:38:00;;;;;;;12.70;9.63;;;17.70;1.00;;;;;;6325738;27;20704;-53
2022/10/13 12:41:03;;;;;;;11.30;10.17;;;17.80;1.00;;;;;;6319746;27;20736;-55
2022/10/13 12:44:12;;;;;;;18.67;10.13;;;17.70;1.00;;;;;;6324390;28;20319;-61
2022/10/13 12:47:37;;;;;;;14.73;9.83;;;17.70;1.00;;;;;;6331230;28;20232;-55
2022/10/13 12:50:40;;;;;;;10.30;9.20;;;17.60;1.00;;;;;;6328668;27;20227;-55
2022/10/13 12:53:45;;;;;;;12.70;9.20;;;17.60;1.00;;;;;;6326481;27;20397;-55
2022/10/13 12:56:50;;;;;;;12.90;9.63;;;17.60;1.00;;;;;;6332938;27;20631;-55
2022/10/13 12:59:58;;;;;;;8.90;8.17;;;17.60;1.00;;;;;;6325447;28;20248;-53
2022/10/13 13:03:03;;;;;;;14.00;9.27;;;17.60;1.00;;;;;;6319141;27;20494;-56
2022/10/13 13:06:29;;;;;;;10.13;9.10;;;17.40;1.00;;;;;;6315330;27;20235;-52
2022/10/13 13:09:37;;;;;;;15.27;9.77;;;17.30;1.00;;;;;;6324511;28;20232;-55
2022/10/13 13:12:40;;;;;;;10.37;9.30;;;17.10;1.00;;;;;;6329683;28;20603;-54
2022/10/13 13:15:43;;;;;;;12.47;9.60;;;17.10;1.00;;;;;;6337415;27;20231;-55
2022/10/13 13:18:47;;;;;;;10.00;8.93;;;17.00;1.00;;;;;;6335370;27;20224;-53
2022/10/13 13:21:50;;;;;;;11.50;9.67;;;16.90;1.00;;;;;;6331272;27;20653;-54
2022/10/13 13:24:59;;;;;;;13.57;9.83;;;16.90;1.00;;;;;;6332219;27;20477;-55
2022/10/13 13:28:04;;;;;;;14.50;8.93;;;16.80;1.00;;;;;;6324196;27;20406;-54
2022/10/13 13:31:09;;;;;;;10.93;8.90;;;16.90;1.00;;;;;;6337672;27;20235;-56
2022/10/13 13:34:12;;;;;;;11.43;9.53;;;16.90;1.00;;;;;;6334346;27;20232;-53
2022/10/13 13:37:30;;;;;;;13.20;9.67;;;17.00;1.00;;;;;;6324371;27;20240;-53
2022/10/13 13:40:34;;;;;;;11.53;8.57;;;16.90;1.00;;;;;;6318200;28;20378;-55
2022/10/13 13:43:37;;;;;;;12.07;8.67;;;16.80;1.00;;;;;;6325581;27;20237;-54
2022/10/13 13:46:40;;;;;;;11.20;8.53;;;16.80;1.00;;;;;;6329457;28;20232;-53
2022/10/13 13:49:44;;;;;;;10.90;8.53;;;16.80;1.00;;;;;;6319897;28;20228;-54
2022/10/13 13:52:47;;;;;;;12.20;8.50;;;16.70;1.00;;;;;;6323035;27;20631;-55
2022/10/13 13:55:52;;;;;;;11.40;10.30;;;16.80;1.00;;;;;;6329828;28;20228;-55
2022/10/13 13:58:54;;;;;;;15.67;9.80;;;16.90;1.00;;;;;;6331294;27;20605;-53
2022/10/13 14:01:57;;;;;;;17.17;10.87;;;16.90;1.00;;;;;;6319045;28;20329;-56
2022/10/13 14:05:00;;;;;;;14.33;9.20;;;16.90;1.00;;;;;;6330791;27;20248;-55
2022/10/13 14:08:03;;;;;;;10.33;9.33;;;17.00;1.00;;;;;;6327460;27;20251;-55
2022/10/13 14:11:08;;;;;;;10.60;9.70;;;17.20;1.00;;;;;;6329625;28;20732;-55
2022/10/13 14:14:10;;;;;;;16.80;10.47;;;17.50;1.00;;;;;;6331025;28;20228;-55
2022/10/13 14:17:13;;;;;;;11.00;9.93;;;17.80;1.00;;;;;;6329777;28;20236;-54
2022/10/13 14:20:16;;;;;;;15.07;10.67;;;17.80;1.00;;;;;;6336389;27;20255;-54
2022/10/13 14:23:19;;;;;;;11.53;10.10;;;17.80;1.00;;;;;;6324527;27;22060;-54
2022/10/13 14:26:23;;;;;;;12.67;10.93;;;17.70;1.00;;;;;;6330955;28;20247;-55
2022/10/13 14:29:26;;;;;;;12.77;9.67;;;17.60;1.00;;;;;;6326123;27;20235;-53
2022/10/13 14:32:29;;;;;;;13.37;11.23;;;17.50;1.00;;;;;;6326017;27;20255;-54
2022/10/13 14:35:32;;;;;;;12.20;10.47;;;17.30;1.00;;;;;;6324310;27;20227;-54
2022/10/13 14:38:35;;;;;;;14.47;11.03;;;17.30;1.00;;;;;;6332827;28;20233;-54
2022/10/13 14:41:40;;;;;;;9.93;9.03;;;17.20;1.00;;;;;;6327369;27;20232;-55
2022/10/13 14:44:42;;;;;;;13.40;10.00;;;17.20;1.00;;;;;;6333798;27;20569;-54
2022/10/13 14:47:45;;;;;;;11.17;10.00;;;17.10;1.00;;;;;;6324001;27;20487;-55
2022/10/13 14:50:48;;;;;;;9.93;8.97;;;17.10;1.00;;;;;;6323310;27;20232;-55
2022/10/13 14:53:51;;;;;;;10.60;9.50;;;17.00;1.00;;;;;;6321478;28;20234;-52
2022/10/13 14:56:55;;;;;;;14.40;9.73;;;17.10;1.00;;;;;;6337862;27;20627;-54
2022/10/13 14:59:58;;;;;;;10.20;9.03;;;17.00;1.00;;;;;;6326820;27;20228;-54
2022/10/13 15:03:04;;;;;;;17.40;10.37;;;17.00;1.00;;;;;;6331667;27;20267;-54
2022/10/13 15:06:10;;;;;;;15.40;9.60;;;16.80;1.00;;;;;;6333239;27;20239;-54
2022/10/13 15:09:13;;;;;;;12.60;9.33;;;16.80;1.00;;;;;;6331249;27;20231;-55
2022/10/13 15:12:17;;;;;;;13.40;10.17;;;16.80;1.00;;;;;;6347063;27;20239;-54
2022/10/13 15:15:21;;;;;;;12.20;11.00;;;16.70;1.00;;;;;;6331225;27;20235;-55
2022/10/13 15:18:24;;;;;;;11.33;10.30;;;16.60;1.00;;;;;;6336099;27;20228;-55
2022/10/13 15:21:31;;;;;;;16.83;11.17;;;16.50;1.00;;;;;;6337667;27;20247;-54
2022/10/13 15:24:33;;;;;;;13.50;11.57;;;16.30;1.00;;;;;;6336764;27;20251;-55
2022/10/13 15:27:39;;;;;;;11.53;9.53;;;16.20;1.00;;;;;;6331269;27;20235;-55
2022/10/13 15:30:44;;;;;;;11.57;10.50;;;16.10;1.00;;;;;;6339690;27;20316;-54
2022/10/13 15:33:50;;;;;;;14.23;9.73;;;16.00;1.00;;;;;;6334701;27;20613;-53
2022/10/13 15:36:53;;;;;;;10.70;9.80;;;15.80;1.00;;;;;;6331247;28;20267;-55
2022/10/13 15:39:56;;;;;;;11.10;9.93;;;15.70;1.00;;;;;;6338215;27;20247;-54
2022/10/13 15:43:00;;;;;;;9.93;8.87;;;15.60;1.00;;;;;;6325390;28;20316;-54
2022/10/13 15:46:06;;;;;;;9.10;8.40;;;15.50;1.00;;;;;;6329946;28;20235;-55
2022/10/13 15:49:08;;;;;;;10.40;9.33;;;15.40;1.00;;;;;;6328059;27;20251;-55
2022/10/13 15:52:11;;;;;;;13.13;10.67;;;15.30;1.00;;;;;;6327378;28;20232;-54
2022/10/13 15:55:14;;;;;;;26.93;12.60;;;15.20;1.00;;;;;;6321561;28;20250;-56
2022/10/13 15:58:18;;;;;;;17.23;10.00;;;15.20;1.00;;;;;;6329503;27;20235;-54
2022/10/13 16:01:22;;;;;;;17.00;13.50;;;15.10;1.00;;;;;;6334595;28;20259;-53
2022/10/13 16:04:25;;;;;;;12.80;11.23;;;15.00;1.00;;;;;;6322160;27;20242;-54
2022/10/13 16:07:28;;;;;;;12.77;10.80;;;15.00;1.00;;;;;;6328162;27;20652;-54